X  Fermer Données météorologiques d'aviation de Metar     LEGR F.G.L. Airport Granada-Jaén Airport
Température
30°C Température
10°C Point de rosée
29% Humidité



Vent
5 KM/H
3 MPH
1 M/S
3 KTS



Calme
N
Conditions actuelles

Partiellement nuageux Partiellement nuageux
Pression 1019.98 (hPa) - 30.12 (inHg)
Visibilité 6 (mile) - 9.7 (km)
Aéroport
Code de l'aéroport LEGR

Emplacement: F.G.L. Airport Granada-Jaén Airport
Distance: 138 (km)

Metar:
LEGR 131230Z VRB03KT 9999 FEW070 30/10 Q1020

Temps: 13-06-2024 14:30 CEST